Аэропорт: Хабаровск-Новый. Хабаровск

ICAO: UHHH

METAR:
2018/11/19 10:00
UHHH 191000Z 25009MPS 9000 -SHSN BKN029CB M05/M09 Q1018 R23L/820350 NOSIG RMK QFE757/1009
METAR:
2018/11/19 09:41
TAF 
      AMD UHHH 190934Z 1909/2015 24005MPS 9999 SCT030 
      TEMPO 1909/1924 26010MPS